createdAt,value
2022-09-14T00:02:09.558Z,15.55
2022-09-14T00:05:11.540Z,15.54
2022-09-14T00:08:14.047Z,15.36
2022-09-14T00:11:15.765Z,15.37
2022-09-14T00:14:19.416Z,15.38
2022-09-14T00:17:20.984Z,15.38
2022-09-14T00:20:22.830Z,15.43
2022-09-14T00:23:24.442Z,15.27
2022-09-14T00:26:26.600Z,15.31
2022-09-14T00:29:28.711Z,15.38
2022-09-14T00:32:30.287Z,15.41
2022-09-14T00:35:35.419Z,15.52
2022-09-14T00:38:38.597Z,15.43
2022-09-14T00:41:44.523Z,15.45
2022-09-14T00:44:46.058Z,15.35
2022-09-14T00:47:51.146Z,15.13
2022-09-14T00:50:54.146Z,15.17
2022-09-14T00:53:56.096Z,15.27
2022-09-14T00:57:01.693Z,15.18
2022-09-14T01:00:06.272Z,15.22
2022-09-14T01:03:07.864Z,15.26
2022-09-14T01:06:51.348Z,15.31
2022-09-14T01:10:22.913Z,15.31
2022-09-14T01:13:47.440Z,15.25
2022-09-14T01:16:49.034Z,15.08
2022-09-14T01:20:02.960Z,15.07
2022-09-14T01:23:35.666Z,15.03
2022-09-14T01:26:49.273Z,14.88
2022-09-14T01:30:24.343Z,14.83
2022-09-14T01:33:37.228Z,14.87
2022-09-14T01:36:43.095Z,14.65
2022-09-14T01:39:50.796Z,14.81
2022-09-14T01:42:59.545Z,14.86
2022-09-14T01:46:08.964Z,14.86
2022-09-14T01:49:19.036Z,14.87
2022-09-14T01:52:26.817Z,14.84
2022-09-14T01:55:35.348Z,14.92
2022-09-14T01:58:43.855Z,14.76
2022-09-14T02:01:50.890Z,14.72
2022-09-14T02:05:14.470Z,14.84
2022-09-14T02:08:16.712Z,14.90
2022-09-14T02:11:18.579Z,14.78
2022-09-14T02:14:20.475Z,14.80
2022-09-14T02:17:22.881Z,14.74
2022-09-14T02:20:46.958Z,14.94
2022-09-14T02:23:49.241Z,14.86
2022-09-14T02:26:52.488Z,14.90
2022-09-14T02:29:54.362Z,14.99
2022-09-14T02:33:25.292Z,15.11
2022-09-14T02:36:45.474Z,14.98
2022-09-14T02:40:05.801Z,14.84
2022-09-14T02:43:22.798Z,14.83
2022-09-14T02:46:50.454Z,14.64
2022-09-14T02:50:41.921Z,14.43
2022-09-14T02:54:24.979Z,14.17
2022-09-14T02:57:27.078Z,14.24
2022-09-14T03:00:31.195Z,14.44
2022-09-14T03:03:35.768Z,14.38
2022-09-14T03:06:37.895Z,14.34
2022-09-14T03:09:40.460Z,14.35
2022-09-14T03:12:42.022Z,14.23
2022-09-14T03:15:43.875Z,14.25
2022-09-14T03:18:46.181Z,14.10
2022-09-14T03:21:47.796Z,13.73
2022-09-14T03:24:49.674Z,13.96
2022-09-14T03:27:53.282Z,14.09
2022-09-14T03:30:55.567Z,14.01
2022-09-14T03:33:59.781Z,13.97
2022-09-14T03:37:01.361Z,13.91
2022-09-14T03:40:03.617Z,13.94
2022-09-14T03:43:05.246Z,13.86
2022-09-14T03:46:12.931Z,13.83
2022-09-14T03:49:14.630Z,13.69
2022-09-14T03:52:17.444Z,13.81
2022-09-14T03:55:19.715Z,13.87
2022-09-14T03:58:21.402Z,13.90
2022-09-14T04:01:23.795Z,13.78
2022-09-14T04:04:25.821Z,13.70
2022-09-14T04:07:27.896Z,13.77
2022-09-14T04:10:29.639Z,13.80
2022-09-14T04:13:31.220Z,13.76
2022-09-14T04:16:33.263Z,13.68
2022-09-14T04:19:37.551Z,13.92
2022-09-14T04:22:39.206Z,14.00
2022-09-14T04:25:41.136Z,13.83
2022-09-14T04:28:43.386Z,13.94
2022-09-14T04:31:45.032Z,14.06
2022-09-14T04:34:48.595Z,14.13
2022-09-14T04:37:50.501Z,14.10
2022-09-14T04:40:52.184Z,14.15
2022-09-14T04:43:55.342Z,14.27
2022-09-14T04:46:57.266Z,14.37
2022-09-14T04:49:58.984Z,14.45
2022-09-14T04:53:00.765Z,14.39
2022-09-14T04:56:05.213Z,14.61
2022-09-14T04:59:07.819Z,14.76
2022-09-14T05:02:09.486Z,14.69
2022-09-14T05:05:11.326Z,14.83
2022-09-14T05:08:13.145Z,14.85
2022-09-14T05:11:20.429Z,14.91
2022-09-14T05:14:21.993Z,14.99
2022-09-14T05:17:23.565Z,15.07
2022-09-14T05:20:25.433Z,15.04
2022-09-14T05:23:27.062Z,15.02
2022-09-14T05:26:31.229Z,15.43
2022-09-14T05:29:32.920Z,15.70
2022-09-14T05:32:34.871Z,16.06
2022-09-14T05:35:36.529Z,16.22
2022-09-14T05:38:39.828Z,16.47
2022-09-14T05:41:41.408Z,16.69
2022-09-14T05:44:43.184Z,16.85
2022-09-14T05:47:44.933Z,16.83
2022-09-14T05:50:47.135Z,17.13
2022-09-14T05:53:54.400Z,17.18
2022-09-14T05:56:55.924Z,17.19
2022-09-14T05:59:57.799Z,17.15
2022-09-14T06:02:59.379Z,17.20
2022-09-14T06:06:01.367Z,17.38
2022-09-14T06:09:04.003Z,17.55
2022-09-14T06:12:05.964Z,17.62
2022-09-14T06:15:08.281Z,17.68
2022-09-14T06:18:09.898Z,17.73
2022-09-14T06:21:15.337Z,17.68
2022-09-14T06:24:17.023Z,17.75
2022-09-14T06:27:18.920Z,17.88
2022-09-14T06:30:21.152Z,18.06
2022-09-14T06:33:23.497Z,18.14
2022-09-14T06:36:27.176Z,18.19
2022-09-14T06:39:29.038Z,18.24
2022-09-14T06:42:31.225Z,18.29
2022-09-14T06:45:33.179Z,18.56
2022-09-14T06:48:41.200Z,18.84
2022-09-14T06:51:45.593Z,18.96
2022-09-14T06:54:47.236Z,19.61
2022-09-14T06:57:49.379Z,19.61
2022-09-14T07:00:50.976Z,19.33
2022-09-14T07:03:53.865Z,19.92
2022-09-14T07:06:55.460Z,20.43
2022-09-14T07:09:57.029Z,20.36
2022-09-14T07:13:00.030Z,20.11
2022-09-14T07:16:03.441Z,20.81
2022-09-14T07:19:07.665Z,22.08
2022-09-14T07:22:09.225Z,21.57
2022-09-14T07:25:11.121Z,22.35
2022-09-14T07:28:12.815Z,22.17
2022-09-14T07:31:25.001Z,22.16
2022-09-14T07:34:26.673Z,21.82
2022-09-14T07:37:29.962Z,21.49
2022-09-14T07:40:32.128Z,21.25
2022-09-14T07:43:34.008Z,20.88
2022-09-14T07:46:41.963Z,20.96
2022-09-14T07:49:43.594Z,20.57
2022-09-14T07:52:45.276Z,20.40
2022-09-14T07:55:47.370Z,20.40
2022-09-14T07:58:55.488Z,20.10
2022-09-14T08:02:00.356Z,19.98
2022-09-14T08:05:02.409Z,19.81
2022-09-14T08:08:04.099Z,19.53
2022-09-14T08:11:29.703Z,19.47
2022-09-14T08:14:31.694Z,19.73
2022-09-14T08:17:33.307Z,19.85
2022-09-14T08:20:35.005Z,19.52
2022-09-14T08:23:37.370Z,19.77
2022-09-14T08:26:40.835Z,19.73
2022-09-14T08:29:42.650Z,19.61
2022-09-14T08:32:45.877Z,19.55
2022-09-14T08:35:57.920Z,19.42
2022-09-14T08:39:00.826Z,19.54
2022-09-14T08:42:06.134Z,19.66
2022-09-14T08:45:09.839Z,19.83
2022-09-14T08:48:26.952Z,19.88
2022-09-14T08:51:29.177Z,19.84
2022-09-14T08:54:32.888Z,19.77
2022-09-14T08:57:58.136Z,20.19
2022-09-14T09:01:16.639Z,20.36
2022-09-14T09:04:46.545Z,20.48
2022-09-14T09:08:33.065Z,20.43
2022-09-14T09:11:41.545Z,20.61
2022-09-14T09:14:54.641Z,20.42
2022-09-14T09:18:06.759Z,20.64
2022-09-14T09:21:22.170Z,20.86
2022-09-14T09:24:37.537Z,21.06
2022-09-14T09:27:39.356Z,21.80
2022-09-14T09:30:41.637Z,21.80
2022-09-14T09:33:50.862Z,23.73
2022-09-14T09:36:53.649Z,26.14
2022-09-14T09:39:55.394Z,25.59
2022-09-14T09:43:07.116Z,24.49
2022-09-14T09:46:09.136Z,23.63
2022-09-14T09:49:25.755Z,23.21
2022-09-14T09:52:28.872Z,22.91
2022-09-14T09:55:37.682Z,22.81
2022-09-14T09:58:39.709Z,22.67
2022-09-14T10:01:41.661Z,22.45
2022-09-14T10:05:28.946Z,22.40
2022-09-14T10:08:34.962Z,22.47
2022-09-14T10:11:38.454Z,22.58
2022-09-14T10:14:41.027Z,22.86
2022-09-14T10:18:13.587Z,22.79
2022-09-14T10:21:20.632Z,22.76
2022-09-14T10:24:22.201Z,23.36
2022-09-14T10:27:42.005Z,23.36
2022-09-14T10:30:51.181Z,23.44
2022-09-14T10:33:56.595Z,23.74
2022-09-14T10:37:11.760Z,23.98
2022-09-14T10:40:24.568Z,24.39
2022-09-14T10:44:02.382Z,24.57
2022-09-14T10:47:10.004Z,24.80
2022-09-14T10:50:25.059Z,24.62
2022-09-14T10:53:39.299Z,24.46
2022-09-14T10:57:03.817Z,24.32
2022-09-14T11:00:13.204Z,24.05
2022-09-14T11:03:45.827Z,23.96
2022-09-14T11:07:29.999Z,24.40
2022-09-14T11:10:58.055Z,24.65
2022-09-14T11:14:28.310Z,24.92
2022-09-14T11:17:57.798Z,24.57
2022-09-14T11:21:11.812Z,24.80
2022-09-14T11:24:33.535Z,24.24
2022-09-14T11:27:55.448Z,24.18
2022-09-14T11:31:12.424Z,23.79
2022-09-14T11:34:26.109Z,23.93
2022-09-14T11:37:42.680Z,23.84
2022-09-14T11:41:07.713Z,23.58
2022-09-14T11:44:21.496Z,23.47
2022-09-14T11:47:25.048Z,23.83
2022-09-14T11:50:30.112Z,23.76
2022-09-14T11:53:33.657Z,23.67
2022-09-14T11:56:35.649Z,23.80
2022-09-14T11:59:40.281Z,23.76
2022-09-14T12:02:43.098Z,23.73
2022-09-14T12:05:46.280Z,23.67
2022-09-14T12:08:48.008Z,23.91
2022-09-14T12:11:51.997Z,24.05
2022-09-14T12:14:59.718Z,24.02
2022-09-14T12:18:01.227Z,23.94
2022-09-14T12:21:08.074Z,23.94
2022-09-14T12:24:15.578Z,24.10
2022-09-14T12:27:23.257Z,24.09
2022-09-14T12:30:40.912Z,23.83
2022-09-14T12:33:45.460Z,24.39
2022-09-14T12:36:47.024Z,24.62
2022-09-14T12:40:24.538Z,24.63
2022-09-14T12:43:35.215Z,24.55
2022-09-14T12:46:38.974Z,24.33
2022-09-14T12:49:41.373Z,24.51
2022-09-14T12:52:52.243Z,24.71
2022-09-14T12:56:00.844Z,24.52
2022-09-14T12:59:07.299Z,24.33
2022-09-14T13:02:27.631Z,23.99
2022-09-14T13:05:32.239Z,24.13
2022-09-14T13:08:34.821Z,24.45
2022-09-14T13:11:40.387Z,24.32
2022-09-14T13:14:44.716Z,24.15
2022-09-14T13:18:18.127Z,24.39
2022-09-14T13:21:22.411Z,25.37
2022-09-14T13:24:38.845Z,25.50
2022-09-14T13:27:40.460Z,25.15
2022-09-14T13:30:43.181Z,25.12
2022-09-14T13:33:53.125Z,24.84
2022-09-14T13:36:56.256Z,24.81
2022-09-14T13:39:59.851Z,24.78
2022-09-14T13:43:02.308Z,24.46
2022-09-14T13:46:08.123Z,24.55
2022-09-14T13:49:12.400Z,24.72
2022-09-14T13:53:02.554Z,24.68
2022-09-14T13:56:22.854Z,24.15
2022-09-14T13:59:24.557Z,24.18
2022-09-14T14:02:27.940Z,24.38
2022-09-14T14:05:40.061Z,24.30
2022-09-14T14:08:41.675Z,24.18
2022-09-14T14:11:51.872Z,24.29
2022-09-14T14:14:57.007Z,24.19
2022-09-14T14:17:58.613Z,24.18
2022-09-14T14:21:14.936Z,24.28
2022-09-14T14:24:26.852Z,24.58
2022-09-14T14:27:33.058Z,24.80
2022-09-14T14:30:40.296Z,24.64
2022-09-14T14:33:53.444Z,24.48
2022-09-14T14:36:55.961Z,24.43
2022-09-14T14:39:57.799Z,24.41
2022-09-14T14:43:03.770Z,24.27
2022-09-14T14:46:07.442Z,24.17
2022-09-14T14:49:17.411Z,24.02
2022-09-14T14:52:19.926Z,23.84
2022-09-14T14:55:23.424Z,23.76
2022-09-14T14:58:25.154Z,23.65
2022-09-14T15:01:26.904Z,23.71
2022-09-14T15:04:28.720Z,23.71
2022-09-14T15:07:30.419Z,23.84
2022-09-14T15:10:32.333Z,23.83
2022-09-14T15:13:33.919Z,23.80
2022-09-14T15:16:35.518Z,23.81
2022-09-14T15:19:37.336Z,23.83
2022-09-14T15:22:42.842Z,23.92
2022-09-14T15:25:44.825Z,24.09
2022-09-14T15:28:48.463Z,24.09
2022-09-14T15:31:50.314Z,24.17
2022-09-14T15:34:53.827Z,24.11
2022-09-14T15:37:55.576Z,24.15
2022-09-14T15:40:57.430Z,24.18
2022-09-14T15:43:59.535Z,23.99
2022-09-14T15:47:01.428Z,23.81
2022-09-14T15:50:04.330Z,23.61
2022-09-14T15:53:05.909Z,23.61
2022-09-14T15:56:12.278Z,23.72
2022-09-14T15:59:14.121Z,23.69
2022-09-14T16:02:17.689Z,23.59
2022-09-14T16:05:19.599Z,23.40
2022-09-14T16:08:21.398Z,23.29
2022-09-14T16:11:24.115Z,23.19
2022-09-14T16:14:25.715Z,23.15
2022-09-14T16:17:27.300Z,22.94
2022-09-14T16:20:29.366Z,22.78
2022-09-14T16:23:32.519Z,22.84
2022-09-14T16:26:36.834Z,22.82
2022-09-14T16:29:40.682Z,22.83
2022-09-14T16:32:42.442Z,22.76
2022-09-14T16:35:44.036Z,22.37
2022-09-14T16:38:45.796Z,21.99
2022-09-14T16:41:47.440Z,21.77
2022-09-14T16:44:49.379Z,21.97
2022-09-14T16:47:52.068Z,21.96
2022-09-14T16:50:54.343Z,21.61
2022-09-14T16:53:57.520Z,21.01
2022-09-14T16:57:01.083Z,20.99
2022-09-14T17:00:04.386Z,20.73
2022-09-14T17:03:05.985Z,21.01
2022-09-14T17:06:11.174Z,20.39
2022-09-14T17:09:23.324Z,20.14
2022-09-14T17:12:25.200Z,20.22
2022-09-14T17:15:26.793Z,20.48
2022-09-14T17:18:29.107Z,20.16
2022-09-14T17:21:38.323Z,20.25
2022-09-14T17:24:40.363Z,20.15
2022-09-14T17:27:42.218Z,20.37
2022-09-14T17:30:44.075Z,20.40
2022-09-14T17:33:47.372Z,20.43
2022-09-14T17:36:49.031Z,20.42
2022-09-14T17:39:50.940Z,20.31
2022-09-14T17:42:52.650Z,20.37
2022-09-14T17:45:56.732Z,20.18
2022-09-14T17:48:59.781Z,20.14
2022-09-14T17:52:02.252Z,20.12
2022-09-14T17:55:04.501Z,20.11
2022-09-14T17:58:06.303Z,19.98
2022-09-14T18:01:14.052Z,19.88
2022-09-14T18:04:17.107Z,19.85
2022-09-14T18:07:19.034Z,19.86
2022-09-14T18:10:21.104Z,19.77
2022-09-14T18:13:23.170Z,19.69
2022-09-14T18:16:26.182Z,19.74
2022-09-14T18:19:28.190Z,19.85
2022-09-14T18:22:30.085Z,19.92
2022-09-14T18:25:32.570Z,19.90
2022-09-14T18:28:35.924Z,19.68
2022-09-14T18:31:38.566Z,19.74
2022-09-14T18:34:40.818Z,19.34
2022-09-14T18:37:42.859Z,19.20
2022-09-14T18:40:45.051Z,19.12
2022-09-14T18:43:50.366Z,18.94
2022-09-14T18:46:52.824Z,18.63
2022-09-14T18:49:55.062Z,18.40
2022-09-14T18:52:57.300Z,18.41
2022-09-14T18:56:07.881Z,18.13
2022-09-14T18:59:13.502Z,18.05
2022-09-14T19:02:15.718Z,18.22
2022-09-14T19:05:17.489Z,18.42
2022-09-14T19:08:19.906Z,18.50
2022-09-14T19:11:24.128Z,18.55
2022-09-14T19:14:26.355Z,18.48
2022-09-14T19:17:28.558Z,18.48
2022-09-14T19:20:48.666Z,18.45
2022-09-14T19:24:11.296Z,18.39
2022-09-14T19:27:13.540Z,18.47
2022-09-14T19:30:16.421Z,18.39
2022-09-14T19:33:18.592Z,18.44
2022-09-14T19:36:22.575Z,18.33
2022-09-14T19:39:26.052Z,18.43
2022-09-14T19:42:28.077Z,18.46
2022-09-14T19:45:30.976Z,18.60
2022-09-14T19:48:34.176Z,18.34
2022-09-14T19:51:36.291Z,18.36
2022-09-14T19:54:38.447Z,18.27
2022-09-14T19:57:40.641Z,18.33
2022-09-14T20:00:42.272Z,17.83
2022-09-14T20:03:45.713Z,18.04
2022-09-14T20:06:48.610Z,18.23
2022-09-14T20:09:50.664Z,18.17
2022-09-14T20:12:54.733Z,18.10
2022-09-14T20:15:56.962Z,18.37
2022-09-14T20:19:02.455Z,18.52
2022-09-14T20:22:04.984Z,18.64
2022-09-14T20:25:08.123Z,18.60
2022-09-14T20:28:10.375Z,18.78
2022-09-14T20:31:13.775Z,18.91
2022-09-14T20:34:18.181Z,18.87
2022-09-14T20:37:19.756Z,19.01
2022-09-14T20:40:21.753Z,18.98
2022-09-14T20:43:23.882Z,19.12
2022-09-14T20:46:31.057Z,19.23
2022-09-14T20:49:33.021Z,19.33
2022-09-14T20:52:36.236Z,19.44
2022-09-14T20:55:37.861Z,19.56
2022-09-14T20:58:41.104Z,19.49
2022-09-14T21:01:44.926Z,19.48
2022-09-14T21:04:47.290Z,19.54
2022-09-14T21:07:56.105Z,19.43
2022-09-14T21:11:02.203Z,19.38
2022-09-14T21:14:04.262Z,19.60
2022-09-14T21:17:05.900Z,19.53
2022-09-14T21:20:08.782Z,19.56
2022-09-14T21:23:10.453Z,19.69
2022-09-14T21:26:12.955Z,19.65
2022-09-14T21:29:24.797Z,19.68
2022-09-14T21:32:26.475Z,19.68
2022-09-14T21:35:33.420Z,19.76
2022-09-14T21:38:35.550Z,19.80
2022-09-14T21:41:38.847Z,19.93
2022-09-14T21:44:40.419Z,19.86
2022-09-14T21:47:42.001Z,19.87
2022-09-14T21:50:47.274Z,19.74
2022-09-14T21:53:50.567Z,19.86
2022-09-14T21:56:52.973Z,19.62
2022-09-14T21:59:54.939Z,19.66
2022-09-14T22:02:56.639Z,19.77
2022-09-14T22:06:04.587Z,19.86
2022-09-14T22:09:07.175Z,19.95
2022-09-14T22:12:09.052Z,19.99
2022-09-14T22:15:11.141Z,19.98
2022-09-14T22:18:14.726Z,20.03
2022-09-14T22:21:17.490Z,20.06
2022-09-14T22:24:22.911Z,20.09
2022-09-14T22:27:24.572Z,20.06
2022-09-14T22:30:26.422Z,20.11
2022-09-14T22:33:29.224Z,20.00
2022-09-14T22:36:31.178Z,19.99
2022-09-14T22:39:33.081Z,20.10
2022-09-14T22:42:36.718Z,20.30
2022-09-14T22:45:38.355Z,20.04
2022-09-14T22:48:41.026Z,19.97
2022-09-14T22:51:42.708Z,20.01
2022-09-14T22:54:44.283Z,20.04
2022-09-14T22:57:46.100Z,19.97
2022-09-14T23:00:48.719Z,19.91
2022-09-14T23:03:55.594Z,19.99
2022-09-14T23:07:00.085Z,19.97
2022-09-14T23:10:01.932Z,19.97
2022-09-14T23:13:03.945Z,20.02
2022-09-14T23:16:18.151Z,19.94
2022-09-14T23:19:20.070Z,19.86
2022-09-14T23:22:22.270Z,19.89
2022-09-14T23:25:24.021Z,19.78
2022-09-14T23:28:25.614Z,19.88
2022-09-14T23:31:29.138Z,19.90
2022-09-14T23:34:31.054Z,19.99
2022-09-14T23:37:33.712Z,20.10
2022-09-14T23:40:35.291Z,20.21
2022-09-14T23:43:37.077Z,20.31
2022-09-14T23:46:38.750Z,20.41
2022-09-14T23:49:40.636Z,20.41
2022-09-14T23:52:42.366Z,20.50
2022-09-14T23:55:44.123Z,20.52
2022-09-14T23:58:45.924Z,20.58
